sensor_id;sensor_type;location;lat;lon;timestamp;pressure;altitude;pressure_sealevel;temperature;humidity
45040;BME280;30778;53.574;7.770;2023-02-17T00:01:14;101540.78;;;5.78;64.92
45040;BME280;30778;53.574;7.770;2023-02-17T00:03:41;101531.88;;;6.03;63.59
45040;BME280;30778;53.574;7.770;2023-02-17T00:06:08;101524.75;;;6.24;63.46
45040;BME280;30778;53.574;7.770;2023-02-17T00:08:35;101530.56;;;5.61;65.28
45040;BME280;30778;53.574;7.770;2023-02-17T00:11:00;101529.22;;;6.11;64.12
45040;BME280;30778;53.574;7.770;2023-02-17T00:13:29;101516.94;;;6.25;63.16
45040;BME280;30778;53.574;7.770;2023-02-17T00:15:54;101524.16;;;5.99;64.69
45040;BME280;30778;53.574;7.770;2023-02-17T00:18:20;101519.59;;;6.21;63.81
45040;BME280;30778;53.574;7.770;2023-02-17T00:20:45;101515.56;;;5.94;64.32
45040;BME280;30778;53.574;7.770;2023-02-17T00:23:11;101506.75;;;6.07;64.16
45040;BME280;30778;53.574;7.770;2023-02-17T00:25:37;101505.00;;;6.09;64.03
45040;BME280;30778;53.574;7.770;2023-02-17T00:28:03;101512.53;;;6.35;63.13
45040;BME280;30778;53.574;7.770;2023-02-17T00:30:29;101518.84;;;6.11;64.02
45040;BME280;30778;53.574;7.770;2023-02-17T00:32:54;101518.84;;;6.08;64.22
45040;BME280;30778;53.574;7.770;2023-02-17T00:35:20;101517.75;;;6.32;63.54
45040;BME280;30778;53.574;7.770;2023-02-17T00:37:45;101522.53;;;5.87;64.99
45040;BME280;30778;53.574;7.770;2023-02-17T00:40:12;101514.28;;;6.33;63.60
45040;BME280;30778;53.574;7.770;2023-02-17T00:42:37;101509.06;;;6.35;63.44
45040;BME280;30778;53.574;7.770;2023-02-17T00:45:03;101495.69;;;5.88;65.10
45040;BME280;30778;53.574;7.770;2023-02-17T00:47:30;101500.94;;;5.86;64.39
45040;BME280;30778;53.574;7.770;2023-02-17T00:49:56;101501.84;;;5.81;65.59
45040;BME280;30778;53.574;7.770;2023-02-17T00:52:22;101496.50;;;5.96;65.10
45040;BME280;30778;53.574;7.770;2023-02-17T00:54:47;101498.59;;;6.41;63.14
45040;BME280;30778;53.574;7.770;2023-02-17T00:57:13;101500.31;;;6.43;63.41
45040;BME280;30778;53.574;7.770;2023-02-17T00:59:39;101501.56;;;6.08;63.86
45040;BME280;30778;53.574;7.770;2023-02-17T01:02:06;101507.63;;;6.07;64.51
45040;BME280;30778;53.574;7.770;2023-02-17T01:04:34;101498.72;;;6.30;63.81
45040;BME280;30778;53.574;7.770;2023-02-17T01:07:00;101490.81;;;6.42;63.23
45040;BME280;30778;53.574;7.770;2023-02-17T01:09:25;101489.91;;;6.43;63.03
45040;BME280;30778;53.574;7.770;2023-02-17T01:11:51;101481.03;;;6.61;62.43
45040;BME280;30778;53.574;7.770;2023-02-17T01:14:17;101479.81;;;6.19;63.91
45040;BME280;30778;53.574;7.770;2023-02-17T01:16:47;101480.34;;;6.47;63.19
45040;BME280;30778;53.574;7.770;2023-02-17T01:19:16;101475.91;;;5.82;65.46
45040;BME280;30778;53.574;7.770;2023-02-17T01:21:45;101469.19;;;6.40;63.49
45040;BME280;30778;53.574;7.770;2023-02-17T01:24:11;101464.13;;;6.28;63.50
45040;BME280;30778;53.574;7.770;2023-02-17T01:26:39;101468.59;;;6.83;61.43
45040;BME280;30778;53.574;7.770;2023-02-17T01:29:06;101470.03;;;6.41;62.67
45040;BME280;30778;53.574;7.770;2023-02-17T01:31:32;101470.56;;;6.66;62.10
45040;BME280;30778;53.574;7.770;2023-02-17T01:33:59;101473.69;;;6.24;63.41
45040;BME280;30778;53.574;7.770;2023-02-17T01:36:28;101474.94;;;5.91;64.71
45040;BME280;30778;53.574;7.770;2023-02-17T01:38:54;101468.63;;;6.15;64.08
45040;BME280;30778;53.574;7.770;2023-02-17T01:41:21;101469.28;;;6.33;63.67
45040;BME280;30778;53.574;7.770;2023-02-17T01:44:04;101469.06;;;6.49;63.10
45040;BME280;30778;53.574;7.770;2023-02-17T01:46:33;101468.94;;;6.59;62.94
45040;BME280;30778;53.574;7.770;2023-02-17T01:48:59;101471.94;;;6.90;61.65
45040;BME280;30778;53.574;7.770;2023-02-17T01:51:30;101464.38;;;6.76;61.84
45040;BME280;30778;53.574;7.770;2023-02-17T01:54:01;101458.38;;;6.71;62.35
45040;BME280;30778;53.574;7.770;2023-02-17T01:56:30;101449.13;;;6.50;63.12
45040;BME280;30778;53.574;7.770;2023-02-17T01:59:02;101448.63;;;6.22;63.48
45040;BME280;30778;53.574;7.770;2023-02-17T02:01:30;101443.00;;;5.86;65.41
45040;BME280;30778;53.574;7.770;2023-02-17T02:03:57;101441.63;;;6.30;63.33
45040;BME280;30778;53.574;7.770;2023-02-17T02:06:26;101429.91;;;6.62;62.61
45040;BME280;30778;53.574;7.770;2023-02-17T02:09:04;101431.25;;;6.27;63.56
45040;BME280;30778;53.574;7.770;2023-02-17T02:11:31;101425.88;;;6.42;63.44
45040;BME280;30778;53.574;7.770;2023-02-17T02:13:57;101423.88;;;6.63;62.70
45040;BME280;30778;53.574;7.770;2023-02-17T02:22:00;101416.66;;;6.17;63.85
45040;BME280;30778;53.574;7.770;2023-02-17T02:27:32;101397.19;;;6.50;63.20
45040;BME280;30778;53.574;7.770;2023-02-17T02:30:45;101392.38;;;6.21;64.11
45040;BME280;30778;53.574;7.770;2023-02-17T02:33:02;101393.44;;;6.07;64.70
45040;BME280;30778;53.574;7.770;2023-02-17T02:38:36;101378.63;;;6.17;63.73
45040;BME280;30778;53.574;7.770;2023-02-17T02:41:10;101384.91;;;6.61;62.97
45040;BME280;30778;53.574;7.770;2023-02-17T02:43:38;101378.88;;;5.96;64.51
45040;BME280;30778;53.574;7.770;2023-02-17T02:46:04;101382.78;;;5.59;66.37
45040;BME280;30778;53.574;7.770;2023-02-17T02:48:29;101370.84;;;6.16;64.68
45040;BME280;30778;53.574;7.770;2023-02-17T02:56:34;101366.72;;;6.63;62.77
45040;BME280;30778;53.574;7.770;2023-02-17T03:04:15;101361.31;;;6.16;64.29
45040;BME280;30778;53.574;7.770;2023-02-17T03:09:54;101336.69;;;6.45;63.41
45040;BME280;30778;53.574;7.770;2023-02-17T03:12:21;101340.28;;;6.38;63.79
45040;BME280;30778;53.574;7.770;2023-02-17T03:14:59;101343.63;;;6.44;63.24
45040;BME280;30778;53.574;7.770;2023-02-17T03:17:29;101339.97;;;6.56;62.64
45040;BME280;30778;53.574;7.770;2023-02-17T03:19:56;101334.34;;;6.28;63.72
45040;BME280;30778;53.574;7.770;2023-02-17T03:22:25;101332.56;;;6.33;63.63
45040;BME280;30778;53.574;7.770;2023-02-17T03:24:53;101328.75;;;6.54;62.98
45040;BME280;30778;53.574;7.770;2023-02-17T03:27:18;101321.88;;;6.52;62.38
45040;BME280;30778;53.574;7.770;2023-02-17T03:29:44;101316.78;;;6.45;63.24
45040;BME280;30778;53.574;7.770;2023-02-17T03:32:12;101314.84;;;5.98;64.53
45040;BME280;30778;53.574;7.770;2023-02-17T03:34:38;101302.47;;;6.74;62.61
45040;BME280;30778;53.574;7.770;2023-02-17T03:37:03;101303.47;;;6.64;62.49
45040;BME280;30778;53.574;7.770;2023-02-17T03:39:29;101310.06;;;6.86;61.61
45040;BME280;30778;53.574;7.770;2023-02-17T03:41:54;101298.53;;;7.00;61.33
45040;BME280;30778;53.574;7.770;2023-02-17T03:44:19;101286.28;;;5.99;64.23
45040;BME280;30778;53.574;7.770;2023-02-17T03:46:45;101304.00;;;6.33;63.28
45040;BME280;30778;53.574;7.770;2023-02-17T03:49:11;101300.88;;;6.64;62.54
45040;BME280;30778;53.574;7.770;2023-02-17T03:51:38;101293.66;;;6.81;61.71
45040;BME280;30778;53.574;7.770;2023-02-17T03:54:03;101283.44;;;6.16;63.77
45040;BME280;30778;53.574;7.770;2023-02-17T03:56:29;101270.94;;;6.43;62.97
45040;BME280;30778;53.574;7.770;2023-02-17T03:58:55;101272.97;;;6.21;63.88
45040;BME280;30778;53.574;7.770;2023-02-17T04:01:21;101262.56;;;6.24;63.00
45040;BME280;30778;53.574;7.770;2023-02-17T04:03:46;101250.41;;;6.80;61.12
45040;BME280;30778;53.574;7.770;2023-02-17T04:06:12;101244.44;;;6.21;63.49
45040;BME280;30778;53.574;7.770;2023-02-17T04:08:38;101253.25;;;6.65;62.45
45040;BME280;30778;53.574;7.770;2023-02-17T04:11:05;101252.19;;;6.75;61.78
45040;BME280;30778;53.574;7.770;2023-02-17T04:13:31;101250.28;;;6.86;61.69
45040;BME280;30778;53.574;7.770;2023-02-17T04:15:57;101255.88;;;6.63;61.86
45040;BME280;30778;53.574;7.770;2023-02-17T04:18:23;101245.06;;;6.38;62.98
45040;BME280;30778;53.574;7.770;2023-02-17T04:20:49;101244.09;;;6.44;62.81
45040;BME280;30778;53.574;7.770;2023-02-17T04:23:16;101254.47;;;6.44;62.55
45040;BME280;30778;53.574;7.770;2023-02-17T04:25:42;101260.22;;;6.64;61.87
45040;BME280;30778;53.574;7.770;2023-02-17T04:28:09;101252.84;;;6.38;62.35
45040;BME280;30778;53.574;7.770;2023-02-17T04:30:35;101257.97;;;6.41;62.63
45040;BME280;30778;53.574;7.770;2023-02-17T04:33:00;101251.13;;;6.37;62.67
45040;BME280;30778;53.574;7.770;2023-02-17T04:35:26;101245.34;;;6.18;63.05
45040;BME280;30778;53.574;7.770;2023-02-17T04:37:52;101245.50;;;6.62;61.54
45040;BME280;30778;53.574;7.770;2023-02-17T04:40:18;101243.38;;;6.34;62.53
45040;BME280;30778;53.574;7.770;2023-02-17T04:42:44;101244.03;;;5.91;63.58
45040;BME280;30778;53.574;7.770;2023-02-17T04:45:13;101235.03;;;6.14;62.53
45040;BME280;30778;53.574;7.770;2023-02-17T04:47:38;101244.41;;;6.24;62.51
45040;BME280;30778;53.574;7.770;2023-02-17T04:50:08;101231.75;;;6.57;61.43
45040;BME280;30778;53.574;7.770;2023-02-17T04:52:34;101235.00;;;6.68;61.25
45040;BME280;30778;53.574;7.770;2023-02-17T04:55:00;101233.66;;;6.47;61.67
45040;BME280;30778;53.574;7.770;2023-02-17T04:57:26;101225.28;;;6.31;62.06
45040;BME280;30778;53.574;7.770;2023-02-17T04:59:52;101210.91;;;6.07;62.34
45040;BME280;30778;53.574;7.770;2023-02-17T05:02:17;101206.41;;;6.71;61.11
45040;BME280;30778;53.574;7.770;2023-02-17T05:04:43;101182.50;;;6.50;61.33
45040;BME280;30778;53.574;7.770;2023-02-17T05:07:08;101194.38;;;6.65;60.77
45040;BME280;30778;53.574;7.770;2023-02-17T05:09:34;101205.91;;;5.95;62.94
45040;BME280;30778;53.574;7.770;2023-02-17T05:11:59;101206.22;;;6.31;62.27
45040;BME280;30778;53.574;7.770;2023-02-17T05:14:25;101193.97;;;6.40;61.98
45040;BME280;30778;53.574;7.770;2023-02-17T05:16:52;101201.97;;;5.71;63.89
45040;BME280;30778;53.574;7.770;2023-02-17T05:19:18;101208.72;;;6.38;62.29
45040;BME280;30778;53.574;7.770;2023-02-17T05:21:43;101201.75;;;5.83;64.16
45040;BME280;30778;53.574;7.770;2023-02-17T05:24:08;101198.31;;;5.84;63.57
45040;BME280;30778;53.574;7.770;2023-02-17T05:26:34;101194.38;;;6.65;61.13
45040;BME280;30778;53.574;7.770;2023-02-17T05:28:59;101197.56;;;6.32;62.35
45040;BME280;30778;53.574;7.770;2023-02-17T05:31:25;101200.31;;;6.19;62.60
45040;BME280;30778;53.574;7.770;2023-02-17T05:33:52;101199.31;;;5.74;63.67
45040;BME280;30778;53.574;7.770;2023-02-17T05:36:18;101200.59;;;6.04;63.57
45040;BME280;30778;53.574;7.770;2023-02-17T05:38:46;101196.41;;;5.95;63.94
45040;BME280;30778;53.574;7.770;2023-02-17T05:41:17;101191.38;;;5.83;64.12
45040;BME280;30778;53.574;7.770;2023-02-17T05:43:43;101184.19;;;6.55;61.87
45040;BME280;30778;53.574;7.770;2023-02-17T05:46:08;101180.25;;;6.32;62.76
45040;BME280;30778;53.574;7.770;2023-02-17T05:48:34;101178.22;;;5.38;65.30
45040;BME280;30778;53.574;7.770;2023-02-17T05:50:59;101172.38;;;5.84;64.66
45040;BME280;30778;53.574;7.770;2023-02-17T05:53:25;101171.97;;;6.08;63.64
45040;BME280;30778;53.574;7.770;2023-02-17T05:55:51;101158.75;;;5.68;64.99
45040;BME280;30778;53.574;7.770;2023-02-17T05:58:16;101156.91;;;5.75;65.45
45040;BME280;30778;53.574;7.770;2023-02-17T06:00:42;101151.16;;;5.56;65.10
45040;BME280;30778;53.574;7.770;2023-02-17T06:03:08;101152.50;;;5.81;65.24
45040;BME280;30778;53.574;7.770;2023-02-17T06:05:33;101156.59;;;5.96;64.10
45040;BME280;30778;53.574;7.770;2023-02-17T06:07:59;101151.78;;;5.72;65.38
45040;BME280;30778;53.574;7.770;2023-02-17T06:10:24;101158.03;;;5.60;65.76
45040;BME280;30778;53.574;7.770;2023-02-17T06:12:49;101155.97;;;5.80;64.97
45040;BME280;30778;53.574;7.770;2023-02-17T06:15:15;101160.59;;;5.61;65.42
45040;BME280;30778;53.574;7.770;2023-02-17T06:17:45;101141.66;;;5.56;65.25
45040;BME280;30778;53.574;7.770;2023-02-17T06:20:11;101129.22;;;5.77;65.00
45040;BME280;30778;53.574;7.770;2023-02-17T06:22:37;101148.44;;;5.65;65.11
45040;BME280;30778;53.574;7.770;2023-02-17T06:25:03;101142.13;;;5.22;65.83
45040;BME280;30778;53.574;7.770;2023-02-17T06:27:29;101152.97;;;6.06;64.24
45040;BME280;30778;53.574;7.770;2023-02-17T06:29:54;101138.66;;;5.82;63.94
45040;BME280;30778;53.574;7.770;2023-02-17T06:32:19;101156.06;;;5.74;65.15
45040;BME280;30778;53.574;7.770;2023-02-17T06:34:45;101142.63;;;5.49;65.96
45040;BME280;30778;53.574;7.770;2023-02-17T06:37:13;101130.13;;;5.76;64.77
45040;BME280;30778;53.574;7.770;2023-02-17T06:39:38;101149.13;;;5.76;64.76
45040;BME280;30778;53.574;7.770;2023-02-17T06:42:03;101168.34;;;5.63;65.31
45040;BME280;30778;53.574;7.770;2023-02-17T06:44:29;101155.59;;;6.05;63.57
45040;BME280;30778;53.574;7.770;2023-02-17T06:46:55;101148.38;;;5.70;65.11
45040;BME280;30778;53.574;7.770;2023-02-17T06:49:21;101156.44;;;6.05;64.19
45040;BME280;30778;53.574;7.770;2023-02-17T06:51:47;101143.25;;;5.65;65.41
45040;BME280;30778;53.574;7.770;2023-02-17T06:54:12;101139.03;;;6.12;63.98
45040;BME280;30778;53.574;7.770;2023-02-17T06:56:37;101124.59;;;5.40;65.75
45040;BME280;30778;53.574;7.770;2023-02-17T06:59:03;101140.03;;;6.05;63.94
45040;BME280;30778;53.574;7.770;2023-02-17T07:01:28;101131.13;;;5.65;65.32
45040;BME280;30778;53.574;7.770;2023-02-17T07:03:54;101143.22;;;6.19;63.90
45040;BME280;30778;53.574;7.770;2023-02-17T07:06:23;101118.44;;;6.01;64.22
45040;BME280;30778;53.574;7.770;2023-02-17T07:08:49;101124.25;;;6.17;63.99
45040;BME280;30778;53.574;7.770;2023-02-17T07:11:15;101128.78;;;6.04;63.95
45040;BME280;30778;53.574;7.770;2023-02-17T07:13:41;101115.91;;;5.98;64.13
45040;BME280;30778;53.574;7.770;2023-02-17T07:16:08;101117.03;;;5.24;66.54
45040;BME280;30778;53.574;7.770;2023-02-17T07:18:34;101102.19;;;5.90;64.95
45040;BME280;30778;53.574;7.770;2023-02-17T07:21:02;101101.50;;;5.24;65.99
45040;BME280;30778;53.574;7.770;2023-02-17T07:23:28;101080.56;;;5.37;66.37
45040;BME280;30778;53.574;7.770;2023-02-17T07:25:54;101096.84;;;5.48;66.10
45040;BME280;30778;53.574;7.770;2023-02-17T07:28:19;101073.63;;;5.40;65.87
45040;BME280;30778;53.574;7.770;2023-02-17T07:30:45;101080.41;;;6.00;64.82
45040;BME280;30778;53.574;7.770;2023-02-17T07:33:10;101085.75;;;5.37;66.57
45040;BME280;30778;53.574;7.770;2023-02-17T07:35:40;101075.91;;;5.60;66.07
45040;BME280;30778;53.574;7.770;2023-02-17T07:38:08;101072.22;;;5.19;67.66
45040;BME280;30778;53.574;7.770;2023-02-17T07:40:34;101084.19;;;5.81;65.35
45040;BME280;30778;53.574;7.770;2023-02-17T07:43:00;101080.19;;;6.13;64.52
45040;BME280;30778;53.574;7.770;2023-02-17T07:45:25;101063.94;;;5.50;66.21
45040;BME280;30778;53.574;7.770;2023-02-17T07:47:51;101046.50;;;5.61;66.08
45040;BME280;30778;53.574;7.770;2023-02-17T07:50:16;101044.91;;;4.97;68.36
45040;BME280;30778;53.574;7.770;2023-02-17T07:52:42;101050.28;;;5.40;66.97
45040;BME280;30778;53.574;7.770;2023-02-17T07:55:07;101049.34;;;5.46;66.56
45040;BME280;30778;53.574;7.770;2023-02-17T07:57:33;101035.41;;;5.53;66.78
45040;BME280;30778;53.574;7.770;2023-02-17T07:59:58;101024.97;;;5.56;66.51
45040;BME280;30778;53.574;7.770;2023-02-17T08:02:24;101026.78;;;5.51;66.65
45040;BME280;30778;53.574;7.770;2023-02-17T08:04:52;101025.03;;;6.01;65.39
45040;BME280;30778;53.574;7.770;2023-02-17T08:07:18;101036.31;;;5.99;65.34
45040;BME280;30778;53.574;7.770;2023-02-17T08:09:43;101048.94;;;6.19;64.68
45040;BME280;30778;53.574;7.770;2023-02-17T08:12:27;101026.69;;;6.05;65.14
45040;BME280;30778;53.574;7.770;2023-02-17T08:15:12;101018.75;;;5.66;66.63
45040;BME280;30778;53.574;7.770;2023-02-17T08:17:37;101027.22;;;6.23;65.08
45040;BME280;30778;53.574;7.770;2023-02-17T08:20:04;101027.53;;;5.59;67.35
45040;BME280;30778;53.574;7.770;2023-02-17T08:22:30;101026.03;;;5.43;67.50
45040;BME280;30778;53.574;7.770;2023-02-17T08:24:57;101028.97;;;5.76;66.77
45040;BME280;30778;53.574;7.770;2023-02-17T08:27:23;101012.50;;;6.25;64.62
45040;BME280;30778;53.574;7.770;2023-02-17T08:29:49;101018.53;;;5.79;66.58
45040;BME280;30778;53.574;7.770;2023-02-17T08:32:15;101037.50;;;5.81;65.96
45040;BME280;30778;53.574;7.770;2023-02-17T08:34:41;101025.78;;;6.08;66.01
45040;BME280;30778;53.574;7.770;2023-02-17T08:37:10;101026.22;;;5.83;66.77
45040;BME280;30778;53.574;7.770;2023-02-17T08:39:36;101027.63;;;6.01;66.41
45040;BME280;30778;53.574;7.770;2023-02-17T08:42:03;101015.75;;;5.88;66.24
45040;BME280;30778;53.574;7.770;2023-02-17T08:44:28;101020.09;;;5.89;65.96
45040;BME280;30778;53.574;7.770;2023-02-17T08:46:54;101016.66;;;5.87;66.43
45040;BME280;30778;53.574;7.770;2023-02-17T08:49:24;101038.41;;;6.28;65.24
45040;BME280;30778;53.574;7.770;2023-02-17T08:51:51;101035.28;;;6.11;66.09
45040;BME280;30778;53.574;7.770;2023-02-17T08:54:18;101036.03;;;6.16;66.09
45040;BME280;30778;53.574;7.770;2023-02-17T08:56:44;101011.38;;;5.93;66.74
45040;BME280;30778;53.574;7.770;2023-02-17T08:59:11;101026.81;;;5.99;66.28
45040;BME280;30778;53.574;7.770;2023-02-17T09:01:37;101011.38;;;6.40;65.07
45040;BME280;30778;53.574;7.770;2023-02-17T09:04:05;101006.47;;;6.23;65.67
45040;BME280;30778;53.574;7.770;2023-02-17T09:06:36;101004.34;;;6.45;65.11
45040;BME280;30778;53.574;7.770;2023-02-17T09:09:05;101005.16;;;6.02;66.38
45040;BME280;30778;53.574;7.770;2023-02-17T09:11:31;100975.78;;;5.53;67.62
45040;BME280;30778;53.574;7.770;2023-02-17T09:14:00;101008.03;;;6.33;65.72
45040;BME280;30778;53.574;7.770;2023-02-17T09:16:27;101017.78;;;6.19;66.28
45040;BME280;30778;53.574;7.770;2023-02-17T09:18:55;100992.66;;;6.22;66.36
45040;BME280;30778;53.574;7.770;2023-02-17T09:21:23;100972.19;;;6.07;66.43
45040;BME280;30778;53.574;7.770;2023-02-17T09:23:49;100988.41;;;6.17;66.20
45040;BME280;30778;53.574;7.770;2023-02-17T09:26:16;101019.94;;;6.43;65.69
45040;BME280;30778;53.574;7.770;2023-02-17T09:28:42;100980.41;;;6.71;64.69
45040;BME280;30778;53.574;7.770;2023-02-17T09:31:19;100984.69;;;6.33;65.51
45040;BME280;30778;53.574;7.770;2023-02-17T09:33:46;100989.69;;;6.42;65.63
45040;BME280;30778;53.574;7.770;2023-02-17T09:36:15;101007.56;;;6.11;66.21
45040;BME280;30778;53.574;7.770;2023-02-17T09:38:41;100999.03;;;6.51;64.67
45040;BME280;30778;53.574;7.770;2023-02-17T09:41:15;101001.84;;;6.79;64.10
45040;BME280;30778;53.574;7.770;2023-02-17T09:43:41;101013.50;;;6.61;64.68
45040;BME280;30778;53.574;7.770;2023-02-17T09:46:20;101023.34;;;6.45;65.28
45040;BME280;30778;53.574;7.770;2023-02-17T09:48:49;101061.56;;;6.82;64.26
45040;BME280;30778;53.574;7.770;2023-02-17T09:51:25;101058.03;;;6.86;64.15
45040;BME280;30778;53.574;7.770;2023-02-17T09:54:01;101065.31;;;7.09;63.22
45040;BME280;30778;53.574;7.770;2023-02-17T09:56:35;101049.75;;;6.66;64.08
45040;BME280;30778;53.574;7.770;2023-02-17T09:59:21;101060.16;;;6.66;63.93
45040;BME280;30778;53.574;7.770;2023-02-17T10:01:49;101072.69;;;6.45;64.40
45040;BME280;30778;53.574;7.770;2023-02-17T10:04:21;101081.22;;;6.94;63.25
45040;BME280;30778;53.574;7.770;2023-02-17T10:07:24;101051.75;;;6.95;63.08
45040;BME280;30778;53.574;7.770;2023-02-17T10:09:51;101035.25;;;6.98;62.35
45040;BME280;30778;53.574;7.770;2023-02-17T10:12:23;101048.91;;;7.06;62.46
45040;BME280;30778;53.574;7.770;2023-02-17T10:15:11;101047.16;;;7.06;62.53
45040;BME280;30778;53.574;7.770;2023-02-17T10:20:33;101062.84;;;7.02;62.63
45040;BME280;30778;53.574;7.770;2023-02-17T10:23:04;101058.03;;;6.85;63.21
45040;BME280;30778;53.574;7.770;2023-02-17T10:25:43;101062.88;;;7.39;61.38
45040;BME280;30778;53.574;7.770;2023-02-17T10:31:06;101036.50;;;7.17;62.30
45040;BME280;30778;53.574;7.770;2023-02-17T10:33:41;101037.03;;;6.96;62.13
45040;BME280;30778;53.574;7.770;2023-02-17T10:36:47;101049.91;;;7.00;62.52
45040;BME280;30778;53.574;7.770;2023-02-17T10:39:40;101037.97;;;6.91;62.56
45040;BME280;30778;53.574;7.770;2023-02-17T10:42:15;101040.50;;;7.33;61.58
45040;BME280;30778;53.574;7.770;2023-02-17T10:44:45;101041.38;;;7.31;61.10
45040;BME280;30778;53.574;7.770;2023-02-17T10:47:10;101044.94;;;6.91;62.17
45040;BME280;30778;53.574;7.770;2023-02-17T10:49:41;101045.97;;;7.21;61.68
45040;BME280;30778;53.574;7.770;2023-02-17T10:52:18;101050.94;;;7.30;61.72
45040;BME280;30778;53.574;7.770;2023-02-17T10:54:56;101043.66;;;7.09;62.01
45040;BME280;30778;53.574;7.770;2023-02-17T10:57:27;101071.69;;;6.95;62.01
45040;BME280;30778;53.574;7.770;2023-02-17T10:59:56;101059.31;;;7.06;62.15
45040;BME280;30778;53.574;7.770;2023-02-17T11:02:34;101054.69;;;7.19;61.68
45040;BME280;30778;53.574;7.770;2023-02-17T11:05:04;101040.25;;;7.07;61.87
45040;BME280;30778;53.574;7.770;2023-02-17T11:07:40;101034.38;;;7.35;61.37
45040;BME280;30778;53.574;7.770;2023-02-17T11:12:48;101035.53;;;7.60;60.06
45040;BME280;30778;53.574;7.770;2023-02-17T11:15:23;101023.31;;;7.26;61.49
45040;BME280;30778;53.574;7.770;2023-02-17T11:17:50;101075.16;;;7.32;61.07
45040;BME280;30778;53.574;7.770;2023-02-17T11:23:45;101044.22;;;7.59;60.23
45040;BME280;30778;53.574;7.770;2023-02-17T11:26:15;100996.66;;;7.18;61.18
45040;BME280;30778;53.574;7.770;2023-02-17T11:28:41;101048.94;;;7.42;60.89
45040;BME280;30778;53.574;7.770;2023-02-17T11:31:21;101039.22;;;7.50;60.29
45040;BME280;30778;53.574;7.770;2023-02-17T11:33:47;101020.91;;;7.53;60.29
45040;BME280;30778;53.574;7.770;2023-02-17T11:36:28;101031.78;;;7.70;60.36
45040;BME280;30778;53.574;7.770;2023-02-17T11:38:54;101028.47;;;7.65;60.03
45040;BME280;30778;53.574;7.770;2023-02-17T11:41:20;101025.56;;;8.09;59.22
45040;BME280;30778;53.574;7.770;2023-02-17T11:44:20;101015.91;;;7.81;59.56
45040;BME280;30778;53.574;7.770;2023-02-17T11:47:07;101027.41;;;7.72;59.96
45040;BME280;30778;53.574;7.770;2023-02-17T11:58:21;101001.81;;;7.56;60.26
45040;BME280;30778;53.574;7.770;2023-02-17T12:01:23;101020.59;;;8.32;58.17
45040;BME280;30778;53.574;7.770;2023-02-17T12:04:05;101005.38;;;7.51;59.98
45040;BME280;30778;53.574;7.770;2023-02-17T12:09:17;101018.88;;;8.00;58.77
45040;BME280;30778;53.574;7.770;2023-02-17T12:12:00;101033.53;;;7.34;60.56
45040;BME280;30778;53.574;7.770;2023-02-17T12:15:07;101011.66;;;7.79;59.37
45040;BME280;30778;53.574;7.770;2023-02-17T12:18:08;101046.41;;;8.40;57.28
45040;BME280;30778;53.574;7.770;2023-02-17T12:26:32;101014.13;;;8.16;58.10
45040;BME280;30778;53.574;7.770;2023-02-17T12:32:12;101040.41;;;8.38;56.97
45040;BME280;30778;53.574;7.770;2023-02-17T12:34:48;101043.00;;;7.74;58.85
45040;BME280;30778;53.574;7.770;2023-02-17T12:37:24;101029.19;;;8.36;56.94
45040;BME280;30778;53.574;7.770;2023-02-17T12:39:58;101022.88;;;7.81;58.18
45040;BME280;30778;53.574;7.770;2023-02-17T12:42:31;101020.84;;;8.54;56.46
45040;BME280;30778;53.574;7.770;2023-02-17T12:45:04;101024.88;;;8.35;56.81
45040;BME280;30778;53.574;7.770;2023-02-17T12:47:58;101028.88;;;8.15;57.28
45040;BME280;30778;53.574;7.770;2023-02-17T12:53:33;101020.06;;;8.21;56.92
45040;BME280;30778;53.574;7.770;2023-02-17T12:56:16;101035.88;;;8.45;56.40
45040;BME280;30778;53.574;7.770;2023-02-17T12:58:46;101009.09;;;8.40;56.52
45040;BME280;30778;53.574;7.770;2023-02-17T13:01:14;101019.66;;;8.35;55.97
45040;BME280;30778;53.574;7.770;2023-02-17T13:03:43;101030.28;;;8.59;55.76
45040;BME280;30778;53.574;7.770;2023-02-17T13:06:23;101019.56;;;8.97;55.06
45040;BME280;30778;53.574;7.770;2023-02-17T13:09:02;101033.53;;;8.96;54.48
45040;BME280;30778;53.574;7.770;2023-02-17T13:11:34;101042.66;;;8.82;54.89
45040;BME280;30778;53.574;7.770;2023-02-17T13:16:48;101042.06;;;9.02;54.58
45040;BME280;30778;53.574;7.770;2023-02-17T13:19:14;101028.66;;;8.84;54.89
45040;BME280;30778;53.574;7.770;2023-02-17T13:21:52;101046.22;;;8.48;56.09
45040;BME280;30778;53.574;7.770;2023-02-17T13:24:36;101050.22;;;8.60;56.10
45040;BME280;30778;53.574;7.770;2023-02-17T13:27:09;101060.34;;;8.06;56.77
45040;BME280;30778;53.574;7.770;2023-02-17T13:29:35;101051.41;;;8.17;56.70
45040;BME280;30778;53.574;7.770;2023-02-17T13:32:05;101056.94;;;8.37;56.38
45040;BME280;30778;53.574;7.770;2023-02-17T13:34:43;101071.69;;;8.05;56.84
45040;BME280;30778;53.574;7.770;2023-02-17T13:37:38;101078.97;;;8.88;54.93
45040;BME280;30778;53.574;7.770;2023-02-17T13:42:55;101109.84;;;7.70;57.46
45040;BME280;30778;53.574;7.770;2023-02-17T13:45:30;101099.47;;;8.05;56.80
45040;BME280;30778;53.574;7.770;2023-02-17T13:50:56;101122.72;;;8.44;54.40
45040;BME280;30778;53.574;7.770;2023-02-17T13:53:36;101094.34;;;8.00;54.63
45040;BME280;30778;53.574;7.770;2023-02-17T13:56:04;101100.59;;;7.94;54.11
45040;BME280;30778;53.574;7.770;2023-02-17T13:58:36;101111.50;;;7.74;53.68
45040;BME280;30778;53.574;7.770;2023-02-17T14:01:04;101101.00;;;8.12;52.52
45040;BME280;30778;53.574;7.770;2023-02-17T14:03:47;101125.88;;;8.24;52.41
45040;BME280;30778;53.574;7.770;2023-02-17T14:06:35;101132.91;;;7.86;54.18
45040;BME280;30778;53.574;7.770;2023-02-17T14:09:17;101120.25;;;8.39;52.97
45040;BME280;30778;53.574;7.770;2023-02-17T14:11:44;101126.63;;;7.57;54.26
45040;BME280;30778;53.574;7.770;2023-02-17T14:14:09;101145.84;;;7.50;53.82
45040;BME280;30778;53.574;7.770;2023-02-17T14:16:37;101158.31;;;7.74;53.02
45040;BME280;30778;53.574;7.770;2023-02-17T14:19:12;101152.44;;;8.02;52.11
45040;BME280;30778;53.574;7.770;2023-02-17T14:21:40;101147.09;;;7.72;52.40